Latest Weather Observations for Cressy

IDT60801

Issued at 7:35 pm EST Friday 29 August 2014 (issued every 30 minutes, with the page automatically refreshed every 10 minutes)

About weather observations | Map of weather stations | Latest weather observations for TAS | Other Formats
Station Details ID: 091306 Name: CRESSY RESEARCH STATION Lat: -41.73 Lon: 147.08 Height: 148.0 m
Data from the previous 72 hours. | See also: Recent months at Cressy
Date/Time
EST
Temp
°C
App
Temp
°C
Dew
Point
Rel
Hum
%
Delta-T
°C
Wind Press
QNH
hPa
Press
MSL
hPa
Rain
since 9 am
mm
Dir
 
Spd
km/h
Gust
km/h
Spd
kts
Gust
kts
29/07:30pm 7.1 5.6 6.8 98 0.1 NE 4 6 2 3 - - 0.0
29/07:00pm 7.5 5.6 6.9 96 0.3 S 6 7 3 4 - - 0.0
29/06:30pm 9.7 7.9 7.3 85 1.1 SSW 6 11 3 6 - - 0.0
29/06:00pm 11.4 10.7 7.1 75 2.1 CALM 0 0 0 0 - - 0.0
29/05:30pm 13.9 13.3 7.4 65 3.2 CALM 0 0 0 0 - - 0.0
29/05:00pm 15.2 13.7 8.4 64 3.5 WNW 6 9 3 5 - - 0.0
29/04:30pm 15.6 13.8 8.1 61 3.8 NW 7 9 4 5 - - 0.0
29/04:00pm 15.6 13.2 6.9 56 4.3 WNW 9 11 5 6 - - 0.0
29/03:30pm 15.4 12.2 6.7 56 4.3 NNW 13 15 7 8 - - 0.0
29/03:00pm 15.7 12.7 6.2 53 4.6 NW 11 17 6 9 - - 0.0
29/02:30pm 15.5 11.9 4.8 49 5.1 NNW 13 19 7 10 - - 0.0
29/02:00pm 15.2 12.1 5.7 53 4.6 NNW 11 20 6 11 - - 0.0
29/01:30pm 15.0 13.6 9.4 69 2.9 N 7 13 4 7 - - 0.0
29/01:00pm 13.6 12.4 10.2 80 1.8 N 7 11 4 6 - - 0.0
29/12:30pm 12.7 12.1 12.2 97 0.3 NW 7 11 4 6 - - 0.0
29/12:00pm 11.3 10.6 11.3 100 0.0 WNW 6 9 3 5 - - 0.0
29/11:30am 10.0 8.7 10.0 100 0.0 W 7 9 4 5 - - 0.0
29/11:00am 9.4 8.2 9.4 100 0.0 E 6 9 3 5 - - 0.0
29/10:30am 8.2 7.0 8.2 100 0.0 NE 4 9 2 5 - - 0.0
29/10:00am 6.9 5.4 6.9 100 0.0 S 4 7 2 4 - - 0.0
29/09:30am 6.9 6.2 6.9 100 0.0 CALM 0 7 0 4 - - 0.0
29/09:00am 6.4 4.8 6.4 100 0.0 S 4 7 2 4 - - 0.2
29/08:30am 5.5 4.1 5.5 100 0.0 SSW 2 6 1 3 - - 0.2
29/08:00am 4.3 2.3 4.3 100 0.0 S 4 7 2 4 - - 0.2
29/07:30am 3.7 1.2 3.7 100 0.0 SSW 6 7 3 4 - - 0.2
29/07:00am 3.4 0.8 3.4 100 0.0 S 6 7 3 4 - - 0.0
29/06:30am 3.2 1.7 3.2 100 0.0 CALM 0 2 0 1 - - 0.0
29/06:00am 2.7 1.1 2.7 100 0.0 CALM 0 0 0 0 - - 0.0
29/05:30am 2.2 -0.6 2.2 100 0.0 SW 6 7 3 4 - - 0.0
29/05:00am 1.4 -1.5 1.4 100 0.0 S 6 7 3 4 - - 0.0
29/04:30am 1.3 -0.5 1.3 100 0.0 CALM 0 0 0 0 - - 0.0
29/04:00am 1.5 -0.6 1.5 100 0.0 SW 2 6 1 3 - - 0.0
29/03:30am 1.6 -0.9 1.6 100 0.0 SW 4 9 2 5 - - 0.0
29/03:00am 1.0 -2.2 0.9 99 0.0 S 7 9 4 5 - - 0.0
29/02:30am 1.2 -1.9 1.1 99 0.0 SSW 7 9 4 5 - - 0.0
29/02:00am 1.5 -0.3 1.4 99 0.0 CALM 0 0 0 0 - - 0.0
29/01:30am 2.0 0.3 1.9 99 0.0 CALM 0 4 0 2 - - 0.0
29/01:00am 2.4 -0.4 2.3 99 0.0 S 6 9 3 5 - - 0.0
29/12:30am 3.4 0.8 3.3 99 0.0 NNE 6 7 3 4 - - 0.0
29/12:00am 4.1 2.4 4.0 99 0.0 NE 2 9 1 5 - - 0.0
 
Date/Time
EST
Temp
°C
App
Temp
°C
Dew
Point
Rel
Hum
%
Delta-T
°C
Wind Press
QNH
hPa
Press
MSL
hPa
Rain
since 9 am
mm
Dir
 
Spd
km/h
Gust
km/h
Spd
kts
Gust
kts
28/11:30pm 4.4 3.1 4.1 98 0.1 CALM 0 0 0 0 - - 0.0
28/11:00pm 5.6 4.5 5.3 98 0.1 CALM 0 7 0 4 - - 0.0
28/10:30pm 5.6 3.2 5.3 98 0.1 N 7 9 4 5 - - 0.0
28/10:00pm 6.5 3.9 6.2 98 0.1 NW 9 11 5 6 - - 0.0
28/09:30pm 7.4 3.9 7.1 98 0.1 NNW 15 17 8 9 - - 0.0
28/09:00pm 7.0 4.5 6.7 98 0.1 NNW 9 11 5 6 - - 0.0
28/08:30pm 7.5 4.8 7.2 98 0.1 NNW 11 11 6 6 - - 0.0
28/08:00pm 8.0 6.1 7.6 97 0.2 N 7 9 4 5 - - 0.0
28/07:30pm 9.0 5.8 8.5 97 0.2 NW 15 17 8 9 - - 0.0
28/07:00pm 9.6 6.3 8.2 91 0.7 NNW 15 17 8 9 - - 0.0
28/06:30pm 10.1 7.0 7.2 82 1.4 NNW 13 15 7 8 - - 0.0
28/06:00pm 11.1 7.6 7.4 78 1.8 N 15 20 8 11 - - 0.0
28/05:30pm 12.2 8.9 7.9 75 2.1 N 15 17 8 9 - - 0.0
28/05:00pm 13.3 9.3 8.4 72 2.5 NNW 19 24 10 13 - - 0.0
28/04:30pm 13.0 9.5 8.7 75 2.2 N 17 22 9 12 - - 0.0
28/04:00pm 14.8 11.6 9.8 72 2.6 N 17 22 9 12 - - 0.0
28/03:30pm 14.5 10.6 9.3 71 2.7 NNW 20 28 11 15 - - 0.0
28/03:00pm 14.6 11.0 10.0 74 2.4 N 19 26 10 14 - - 0.0
28/02:30pm 14.3 10.6 9.5 73 2.5 N 19 24 10 13 - - 0.0
28/02:00pm 14.2 10.6 10.0 76 2.2 N 19 26 10 14 - - 0.0
28/01:30pm 14.3 10.4 9.5 73 2.5 NW 20 30 11 16 - - 0.0
28/01:00pm 14.0 10.4 10.4 79 1.9 NNW 20 26 11 14 - - 0.0
28/12:30pm 13.7 10.1 10.7 82 1.6 NNW 20 28 11 15 - - 0.0
28/12:00pm 13.2 10.3 10.9 86 1.2 NW 17 24 9 13 - - 0.0
28/11:30am 13.6 9.8 11.1 85 1.3 NNW 22 28 12 15 - - 0.0
28/11:00am 13.1 10.4 12.8 98 0.2 N 19 24 10 13 - - 0.0
28/10:30am 12.5 9.7 12.5 100 0.0 N 19 26 10 14 - - 0.0
28/10:00am 10.3 9.1 10.3 100 0.0 N 7 11 4 6 - - 0.0
28/09:30am 9.3 9.2 9.3 100 0.0 CALM 0 0 0 0 - - 0.0
28/09:00am 7.7 7.2 7.7 100 0.0 CALM 0 0 0 0 - - 0.0
28/08:30am 6.9 6.2 6.9 100 0.0 CALM 0 0 0 0 - - 0.0
28/08:00am 6.2 5.3 6.2 100 0.0 CALM 0 0 0 0 - - 0.0
28/07:30am 5.0 3.9 5.0 100 0.0 CALM 0 0 0 0 - - 0.0
28/07:00am 4.4 3.2 4.4 100 0.0 CALM 0 0 0 0 - - 0.0
28/06:30am 4.2 1.8 4.2 100 0.0 SSE 6 7 3 4 - - 0.0
28/06:00am 4.0 1.5 4.0 100 0.0 SSE 6 7 3 4 - - 0.0
28/05:30am 3.7 2.3 3.7 100 0.0 CALM 0 0 0 0 - - 0.0
28/05:00am 4.3 2.7 4.3 100 0.0 S 2 6 1 3 - - 0.0
28/04:30am 4.3 1.9 4.3 100 0.0 S 6 7 3 4 - - 0.0
28/04:00am 4.6 2.3 4.6 100 0.0 S 6 7 3 4 - - 0.0
28/03:30am 4.4 3.2 4.4 100 0.0 CALM 0 0 0 0 - - 0.0
28/03:00am 4.0 2.7 4.0 100 0.0 CALM 0 0 0 0 - - 0.0
28/02:30am 4.0 2.3 4.0 100 0.0 SSW 2 7 1 4 - - 0.0
28/02:00am 4.6 3.4 4.6 100 0.0 CALM 0 0 0 0 - - 0.0
28/01:30am 4.6 3.4 4.6 100 0.0 CALM 0 0 0 0 - - 0.0
28/01:00am 4.6 3.4 4.5 99 0.0 CALM 0 0 0 0 - - 0.0
28/12:30am 4.6 3.4 4.5 99 0.0 CALM 0 0 0 0 - - 0.0
28/12:00am 4.8 3.6 4.7 99 0.0 CALM 0 0 0 0 - - 0.0
 
Date/Time
EST
Temp
°C
App
Temp
°C
Dew
Point
Rel
Hum
%
Delta-T
°C
Wind Press
QNH
hPa
Press
MSL
hPa
Rain
since 9 am
mm
Dir
 
Spd
km/h
Gust
km/h
Spd
kts
Gust
kts
27/11:30pm 4.4 2.8 4.3 99 0.0 WNW 2 7 1 4 - - 0.0
27/11:00pm 4.7 3.5 4.6 99 0.0 CALM 0 0 0 0 - - 0.0
27/10:30pm 5.8 3.6 5.5 98 0.1 N 6 9 3 5 - - 0.0
27/10:00pm 5.7 3.3 5.4 98 0.1 NNW 7 7 4 4 - - 0.0
27/09:30pm 6.7 4.5 6.4 98 0.1 N 7 11 4 6 - - 0.0
27/09:00pm 6.5 4.3 6.2 98 0.1 NNW 7 9 4 5 - - 0.0
27/08:30pm 7.4 5.0 7.0 97 0.2 N 9 13 5 7 - - 0.0
27/08:00pm 7.6 4.8 7.0 96 0.3 N 11 13 6 7 - - 0.0
27/07:30pm 7.9 4.7 7.0 94 0.4 NNW 13 17 7 9 - - 0.0
27/07:00pm 10.0 6.2 7.4 84 1.2 N 17 20 9 11 - - 0.0
27/06:30pm 10.3 6.3 8.2 87 1.0 NNW 19 24 10 13 - - 0.0
27/06:00pm 10.3 7.1 8.6 89 0.8 NNW 15 17 8 9 - - 0.0
27/05:30pm 12.2 8.3 8.7 79 1.8 NNW 19 24 10 13 - - 0.0
27/05:00pm 13.8 9.9 8.8 72 2.5 N 19 22 10 12 - - 0.0
27/04:30pm 13.9 9.3 8.3 69 2.8 NNW 22 26 12 14 - - 0.0
27/04:00pm 14.8 11.2 10.0 73 2.5 NNW 19 26 10 14 - - 0.0
27/03:30pm 15.1 11.3 9.7 70 2.8 NNW 20 30 11 16 - - 0.0
27/03:00pm 15.6 12.2 10.6 72 2.7 NNW 19 26 10 14 - - 0.0
27/02:30pm 15.2 11.5 10.0 71 2.7 NW 20 28 11 15 - - 0.0
27/02:00pm 15.7 10.4 10.0 69 3.0 NNW 28 35 15 19 - - 0.0
27/01:30pm 16.0 11.6 10.5 70 2.9 NNW 24 32 13 17 - - 0.0
27/01:00pm 15.4 10.9 10.2 71 2.7 NNW 24 30 13 16 - - 0.0
27/12:30pm 15.5 12.2 11.5 77 2.2 NW 20 28 11 15 - - 0.0
27/12:00pm 14.3 10.0 10.9 80 1.8 NNW 24 32 13 17 - - 0.0
27/11:30am 15.1 10.5 10.9 76 2.2 NNW 26 33 14 18 - - 0.0
27/11:00am 14.4 11.2 11.9 85 1.4 NW 20 32 11 17 - - 0.0
27/10:30am 13.6 9.8 12.3 92 0.7 NNW 24 30 13 16 - - 0.0
27/10:00am 13.6 10.5 13.4 99 0.1 NNW 22 28 12 15 - - 0.0
27/09:30am 12.3 9.4 12.3 100 0.0 NNW 19 24 10 13 - - 0.0
27/09:00am 10.0 9.3 10.0 100 0.0 NNW 4 9 2 5 - - 0.2
27/08:30am 7.2 6.6 7.2 100 0.0 CALM 0 0 0 0 - - 0.2
27/08:00am 6.7 5.6 6.7 100 0.0 SSE 2 7 1 4 - - 0.2
27/07:30am 6.4 4.4 6.4 100 0.0 NW 6 9 3 5 - - 0.2
27/07:00am 4.8 2.9 4.8 100 0.0 NNE 4 7 2 4 - - 0.2
27/06:30am 6.4 4.8 6.4 100 0.0 W 4 7 2 4 - - 0.0
27/06:00am 6.5 4.6 6.5 100 0.0 NNW 6 7 3 4 - - 0.0
27/05:30am 6.3 3.7 6.3 100 0.0 N 9 13 5 7 - - 0.0
27/05:00am 7.2 4.5 7.2 100 0.0 N 11 13 6 7 - - 0.0
27/04:30am 7.0 4.6 7.0 100 0.0 N 9 13 5 7 - - 0.0
27/04:00am 8.0 5.8 8.0 100 0.0 N 9 11 5 6 - - 0.0
27/03:30am 8.4 5.6 8.4 100 0.0 N 13 15 7 8 - - 0.0
27/03:00am 9.4 6.1 9.4 100 0.0 NNW 17 19 9 10 - - 0.0
27/02:30am 9.8 6.9 9.8 100 0.0 NNW 15 19 8 10 - - 0.0
27/02:00am 9.7 7.2 9.7 100 0.0 NNW 13 17 7 9 - - 0.0
27/01:30am 9.9 7.5 9.9 100 0.0 NNW 13 17 7 9 - - 0.0
27/01:00am 10.4 7.7 10.4 100 0.0 NW 15 19 8 10 - - 0.0
27/12:30am 8.7 5.9 8.6 99 0.0 NW 13 13 7 7 - - 0.0
27/12:00am 9.0 6.7 8.9 99 0.0 NW 11 13 6 7 - - 0.0
 
Date/Time
EST
Temp
°C
App
Temp
°C
Dew
Point
Rel
Hum
%
Delta-T
°C
Wind Press
QNH
hPa
Press
MSL
hPa
Rain
since 9 am
mm
Dir
 
Spd
km/h
Gust
km/h
Spd
kts
Gust
kts
26/11:30pm 9.6 7.4 9.5 99 0.1 NW 11 15 6 8 - - 0.0
26/11:00pm 11.2 8.3 11.0 99 0.1 NW 17 20 9 11 - - 0.0
26/10:30pm 11.4 8.9 11.2 99 0.1 NNW 15 20 8 11 - - 0.0
26/10:00pm 11.3 8.8 11.1 99 0.1 NNW 15 19 8 10 - - 0.0
26/09:30pm 11.0 8.4 10.8 99 0.1 NW 15 19 8 10 - - 0.0
26/09:00pm 9.6 7.0 9.5 99 0.1 NW 13 15 7 8 - - 0.0
26/08:30pm 9.7 7.1 9.4 98 0.2 NNW 13 15 7 8 - - 0.0
26/08:00pm 10.5 8.1 10.2 98 0.2 N 13 17 7 9 - - 0.0

Other Formats:

Comma delimited format used in spreadsheet applications
http://www.bom.gov.au/fwo/IDT60801/IDT60801.95969.axf

JavaScript Object Notation format (JSON) in row-major order
http://www.bom.gov.au/fwo/IDT60801/IDT60801.95969.json